Time;durP1;ratioP1;P1;durP2;ratioP2;P2;SDS_P1;SDS_P2;PMS_P1;PMS_P2;Temp;Humidity;BMP_temperature;BMP_pressure;BME280_temperature;BME280_humidity;BME280_pressure;Samples;Min_cycle;Max_cycle;Signal;HPM_P1;HPM_P2
2022/04/16 00:00:56;;;;;;;2.47;1.70;;;;;;;9.83;93.29;101278.06;5039105;28;20226;-58
2022/04/16 00:03:22;;;;;;;1.70;1.60;;;;;;;9.79;93.47;101281.44;5038338;28;20293;-55
2022/04/16 00:05:51;;;;;;;2.07;1.37;;;;;;;9.77;93.33;101289.19;5041144;28;20670;-56
2022/04/16 00:08:18;;;;;;;1.60;1.50;;;;;;;9.73;93.36;101283.13;5041451;28;20179;-56
2022/04/16 00:10:44;;;;;;;1.70;1.60;;;;;;;9.67;93.50;101283.06;5039646;28;20194;-57
2022/04/16 00:13:09;;;;;;;1.70;1.60;;;;;;;9.64;93.81;101283.03;5040266;28;20687;-55
2022/04/16 00:15:34;;;;;;;1.67;1.57;;;;;;;9.60;93.81;101279.53;5043943;28;20225;-56
2022/04/16 00:18:00;;;;;;;2.80;1.80;;;;;;;9.57;93.83;101279.50;5045924;28;20218;-55
2022/04/16 00:20:26;;;;;;;2.00;1.90;;;;;;;9.58;93.79;101285.56;5038914;28;20244;-56
2022/04/16 00:22:53;;;;;;;1.90;1.80;;;;;;;9.56;93.90;101289.84;5040116;28;20689;-55
2022/04/16 00:25:19;;;;;;;3.33;1.80;;;;;;;9.49;94.24;101282.84;5040401;28;20178;-56
2022/04/16 00:27:44;;;;;;;1.60;1.50;;;;;;;9.45;94.77;101275.06;5042691;28;20629;-56
2022/04/16 00:30:10;;;;;;;1.90;1.80;;;;;;;9.40;95.33;101275.84;5046292;28;20663;-55
2022/04/16 00:32:35;;;;;;;2.00;1.90;;;;;;;9.36;95.36;101274.09;5036009;28;20212;-56
2022/04/16 00:35:02;;;;;;;1.57;1.47;;;;;;;9.32;95.53;101275.75;5034046;28;20203;-56
2022/04/16 00:37:27;;;;;;;1.73;1.63;;;;;;;9.25;95.82;101286.88;5032126;28;20390;-57
2022/04/16 00:39:53;;;;;;;1.80;1.63;;;;;;;9.25;95.71;101284.31;5039528;28;20763;-55
2022/04/16 00:42:18;;;;;;;1.60;1.50;;;;;;;9.22;96.26;101282.56;5041463;28;20211;-56
2022/04/16 00:44:43;;;;;;;1.80;1.70;;;;;;;9.15;96.19;101289.31;5037826;28;20232;-53
2022/04/16 00:47:09;;;;;;;2.20;2.00;;;;;;;9.14;96.31;101284.16;5038759;28;20612;-55
2022/04/16 00:49:35;;;;;;;1.60;1.50;;;;;;;9.09;96.86;101278.06;5033688;28;20669;-55
2022/04/16 00:52:01;;;;;;;2.90;1.90;;;;;;;9.02;97.42;101284.84;5032931;28;20438;-55
2022/04/16 00:54:27;;;;;;;2.00;1.90;;;;;;;9.02;97.12;101284.00;5035994;28;20210;-57
2022/04/16 00:56:52;;;;;;;1.60;1.50;;;;;;;8.95;97.51;101280.47;5040998;28;20209;-55
2022/04/16 00:59:18;;;;;;;3.00;1.80;;;;;;;8.95;97.07;101290.78;5037539;28;20199;-54
2022/04/16 01:01:43;;;;;;;1.70;1.60;;;;;;;8.95;96.52;101281.31;5033487;28;20217;-56
2022/04/16 01:04:09;;;;;;;2.17;1.97;;;;;;;8.91;96.91;101276.09;5040510;28;20223;-56
2022/04/16 01:06:39;;;;;;;2.47;2.10;;;;;;;8.91;97.29;101281.25;5035916;28;20673;-55
2022/04/16 01:09:05;;;;;;;1.80;1.70;;;;;;;8.87;97.76;101285.53;5030550;28;20336;-55
2022/04/16 01:11:32;;;;;;;2.73;2.03;;;;;;;8.81;98.16;101277.69;5041063;28;20194;-55
2022/04/16 01:14:01;;;;;;;1.80;1.70;;;;;;;8.81;97.69;101280.25;5034981;28;20320;-56
2022/04/16 01:16:31;;;;;;;2.10;1.90;;;;;;;8.75;98.51;101280.19;5035988;28;20226;-54
2022/04/16 01:18:56;;;;;;;2.10;1.90;;;;;;;8.72;98.52;101283.56;5042615;28;20223;-56
2022/04/16 01:21:22;;;;;;;2.03;1.93;;;;;;;8.67;98.93;101277.50;5039333;28;20263;-56
2022/04/16 01:23:47;;;;;;;2.07;1.87;;;;;;;8.63;99.10;101268.81;5035772;28;20196;-56
2022/04/16 01:26:13;;;;;;;2.50;2.07;;;;;;;8.55;99.48;101275.59;5039423;28;20188;-54
2022/04/16 01:28:40;;;;;;;2.33;2.13;;;;;;;8.51;99.72;101273.78;5035730;28;20197;-56
2022/04/16 01:31:06;;;;;;;1.90;1.80;;;;;;;8.51;99.46;101268.63;5034536;28;20659;-55
2022/04/16 01:33:31;;;;;;;2.00;1.90;;;;;;;8.48;99.83;101277.22;5039980;28;20213;-56
2022/04/16 01:35:57;;;;;;;1.90;1.80;;;;;;;8.47;99.42;101275.44;5033837;28;20223;-56
2022/04/16 01:38:25;;;;;;;2.07;1.87;;;;;;;8.44;99.17;101283.13;5034274;28;20187;-56
2022/04/16 01:40:56;;;;;;;2.30;1.67;;;;;;;8.40;99.66;101271.00;5039462;28;20235;-55
2022/04/16 01:43:22;;;;;;;1.93;1.83;;;;;;;8.34;99.93;101276.94;5035083;28;20197;-56
2022/04/16 01:45:49;;;;;;;2.07;1.87;;;;;;;8.34;99.88;101283.81;5033802;28;20180;-56
2022/04/16 01:48:16;;;;;;;2.53;2.00;;;;;;;8.31;99.81;101281.19;5040508;28;20187;-55
2022/04/16 01:50:41;;;;;;;1.83;1.73;;;;;;;8.26;99.88;101283.69;5031427;28;20190;-55
2022/04/16 01:53:07;;;;;;;2.00;1.80;;;;;;;8.26;99.90;101278.53;5036523;28;20588;-55
2022/04/16 01:55:32;;;;;;;1.90;1.77;;;;;;;8.25;100.00;101287.13;5038687;28;20193;-56
2022/04/16 01:57:58;;;;;;;2.00;1.70;;;;;;;8.21;100.00;101282.75;5038536;28;20273;-54
2022/04/16 02:00:23;;;;;;;1.97;1.87;;;;;;;8.18;100.00;101282.69;5037347;28;20294;-54
2022/04/16 02:02:50;;;;;;;2.27;2.07;;;;;;;8.13;100.00;101282.63;5035188;28;20219;-55
2022/04/16 02:05:16;;;;;;;2.07;1.97;;;;;;;8.09;100.00;101276.53;5033924;28;20189;-56
2022/04/16 02:07:41;;;;;;;2.73;1.90;;;;;;;8.07;100.00;101279.94;5031551;28;20191;-55
2022/04/16 02:10:08;;;;;;;2.23;2.03;;;;;;;8.06;100.00;101280.78;5037167;28;20189;-57
2022/04/16 02:12:35;;;;;;;1.90;1.80;;;;;;;8.06;100.00;101288.53;5038697;28;20190;-56
2022/04/16 02:15:01;;;;;;;2.07;1.97;;;;;;;8.00;100.00;101289.28;5034386;28;20180;-57
2022/04/16 02:17:26;;;;;;;1.77;1.67;;;;;;;7.99;100.00;101284.97;5038487;28;20194;-56
2022/04/16 02:19:52;;;;;;;4.43;2.30;;;;;;;8.02;100.00;101291.88;5042232;28;20194;-56
2022/04/16 02:22:17;;;;;;;2.40;2.20;;;;;;;7.94;100.00;101286.59;5038116;28;20220;-56
2022/04/16 02:24:45;;;;;;;2.37;2.17;;;;;;;7.92;100.00;101283.09;5040884;28;20206;-56
2022/04/16 02:27:11;;;;;;;2.00;1.90;;;;;;;7.92;100.00;101293.41;5037485;28;20305;-55
2022/04/16 02:29:36;;;;;;;2.00;1.77;;;;;;;7.88;100.00;101295.09;5040358;28;20189;-54
2022/04/16 02:32:03;;;;;;;2.10;1.90;;;;;;;7.87;100.00;101295.91;5033921;28;20248;-56
2022/04/16 02:34:28;;;;;;;2.00;1.90;;;;;;;7.84;100.00;101301.00;5032253;28;20216;-56
2022/04/16 02:36:54;;;;;;;2.00;1.90;;;;;;;7.80;100.00;101294.06;5032251;28;20192;-56
2022/04/16 02:39:19;;;;;;;2.37;2.17;;;;;;;7.78;100.00;101293.19;5038442;28;20197;-54
2022/04/16 02:41:45;;;;;;;2.93;2.60;;;;;;;7.76;100.00;101280.25;5038466;28;20273;-56
2022/04/16 02:47:06;;;;;;;2.90;2.67;;;;;;;7.80;100.00;101295.78;5035063;28;20639;-56
2022/04/16 02:49:41;;;;;;;2.50;2.30;;;;;;;7.75;100.00;101282.81;5042153;28;20199;-54
2022/04/16 02:52:07;;;;;;;2.60;2.30;;;;;;;7.73;100.00;101282.75;5041755;28;20593;-55
2022/04/16 02:54:32;;;;;;;7.33;2.07;;;;;;;7.73;100.00;101285.34;5034505;28;20208;-55
2022/04/16 02:56:58;;;;;;;2.10;2.00;;;;;;;7.67;100.00;101295.53;5038537;28;20183;-56
2022/04/16 02:59:23;;;;;;;2.37;2.17;;;;;;;7.70;100.00;101292.16;5038801;28;20193;-56
2022/04/16 03:01:49;;;;;;;2.30;2.10;;;;;;;7.71;100.00;101299.94;5037657;28;20219;-56
2022/04/16 03:04:14;;;;;;;2.57;2.30;;;;;;;7.69;100.00;101300.72;5036161;28;20210;-55
2022/04/16 03:06:40;;;;;;;2.17;2.07;;;;;;;7.64;100.00;101316.09;5033645;28;20197;-56
2022/04/16 03:09:06;;;;;;;3.67;2.23;;;;;;;7.61;100.00;101311.75;5032827;28;20189;-55
2022/04/16 03:11:32;;;;;;;2.37;2.20;;;;;;;7.59;100.00;101304.81;5037395;28;20196;-56
2022/04/16 03:17:31;;;;;;;2.70;2.50;;;;;;;7.56;100.00;101317.66;5031851;28;20208;-56
2022/04/16 03:19:26;;;;;;;2.67;2.47;;;;;;;7.48;100.00;101315.78;5034988;28;20676;-56
2022/04/16 03:21:52;;;;;;;2.60;2.30;;;;;;;7.47;100.00;101311.47;5034290;28;20208;-56
2022/04/16 03:24:18;;;;;;;2.80;2.60;;;;;;;7.44;100.00;101310.56;5035504;28;21842;-55
2022/04/16 03:26:43;;;;;;;3.23;2.57;;;;;;;7.39;100.00;101302.72;5034613;28;20196;-56
2022/04/16 03:29:08;;;;;;;2.80;2.47;;;;;;;7.38;100.00;101303.56;5041512;28;20219;-57
2022/04/16 03:31:34;;;;;;;3.03;2.83;;;;;;;7.39;100.00;101301.84;5038342;28;20264;-54
2022/04/16 03:33:59;;;;;;;2.50;2.30;;;;;;;7.35;100.00;101306.06;5037984;28;20262;-56
2022/04/16 03:36:24;;;;;;;3.50;3.20;;;;;;;7.23;100.00;101295.53;5030063;28;20224;-55
2022/04/16 03:38:50;;;;;;;2.90;2.70;;;;;;;7.21;100.00;101290.31;5032288;28;20186;-56
2022/04/16 03:41:16;;;;;;;3.53;3.03;;;;;;;7.19;100.00;101302.28;5033617;28;20279;-55
2022/04/16 03:43:41;;;;;;;2.90;2.60;;;;;;;7.18;100.00;101290.28;5033037;28;20212;-54
2022/04/16 03:46:06;;;;;;;3.67;2.90;;;;;;;7.12;100.00;101300.44;5037102;28;20589;-55
2022/04/16 03:48:32;;;;;;;3.00;2.70;;;;;;;7.11;100.00;101304.69;5034360;28;20230;-56
2022/04/16 03:50:57;;;;;;;2.80;2.50;;;;;;;7.08;100.00;101301.19;5039341;28;20187;-55
2022/04/16 03:53:22;;;;;;;2.70;2.50;;;;;;;7.11;100.00;101316.72;5030173;28;20282;-56
2022/04/16 04:01:16;;;;;;;2.73;2.53;;;;;;;7.05;100.00;101321.72;5039051;28;20219;-55
2022/04/16 04:03:41;;;;;;;2.90;2.70;;;;;;;7.05;100.00;101322.59;5035695;28;20216;-55
2022/04/16 04:06:07;;;;;;;2.97;2.77;;;;;;;7.07;100.00;101320.06;5038497;28;20204;-55
2022/04/16 04:08:33;;;;;;;3.30;2.40;;;;;;;7.04;100.00;101331.16;5032854;28;20224;-55
2022/04/16 04:10:59;;;;;;;3.63;3.07;;;;;;;7.00;100.00;101327.66;5041919;28;20247;-55
2022/04/16 04:13:24;;;;;;;2.93;2.63;;;;;;;7.00;100.00;101324.19;5041508;28;20612;-55
2022/04/16 04:15:50;;;;;;;3.03;2.83;;;;;;;7.00;100.00;101332.81;5040957;28;20245;-54
2022/04/16 04:18:15;;;;;;;2.70;2.50;;;;;;;6.97;100.00;101318.97;5042882;28;20190;-55
2022/04/16 04:20:40;;;;;;;3.23;2.80;;;;;;;6.93;100.00;101330.91;5037388;28;20196;-55
2022/04/16 04:23:09;;;;;;;3.30;2.90;;;;;;;6.91;100.00;101337.72;5039991;28;20249;-55
2022/04/16 04:25:34;;;;;;;3.20;2.90;;;;;;;6.88;100.00;101337.69;5045063;28;20631;-54
2022/04/16 04:28:00;;;;;;;3.17;2.87;;;;;;;6.86;100.00;101332.47;5041699;28;20282;-54
2022/04/16 04:30:25;;;;;;;3.10;2.80;;;;;;;6.84;100.00;101339.28;5038905;28;20233;-56
2022/04/16 04:32:50;;;;;;;2.87;2.67;;;;;;;6.80;100.00;101336.59;5036780;28;20417;-54
2022/04/16 04:35:16;;;;;;;2.67;2.47;;;;;;;6.79;100.00;101350.31;5037785;28;20326;-56
2022/04/16 04:37:42;;;;;;;2.90;2.70;;;;;;;6.80;100.00;101346.91;5037359;28;20200;-56
2022/04/16 04:40:08;;;;;;;4.37;2.77;;;;;;;6.77;100.00;101345.13;5039489;28;20190;-56
2022/04/16 04:42:34;;;;;;;3.47;3.00;;;;;;;6.81;100.00;101356.34;5043707;28;20663;-53
2022/04/16 04:45:07;;;;;;;3.53;2.70;;;;;;;6.82;100.00;101350.38;5055928;28;20198;-55
2022/04/16 04:47:33;;;;;;;3.07;2.77;;;;;;;6.80;100.00;101357.19;5036561;28;20212;-55
2022/04/16 04:49:58;;;;;;;3.27;2.77;;;;;;;6.79;100.00;101360.59;5036187;28;20803;-55
2022/04/16 04:52:29;;;;;;;2.83;2.63;;;;;;;6.78;100.00;101356.28;5033701;28;20194;-54
2022/04/16 04:54:55;;;;;;;3.20;2.90;;;;;;;6.79;100.00;101352.88;5046198;28;20189;-55
2022/04/16 04:57:21;;;;;;;3.43;2.87;;;;;;;6.81;100.00;101351.22;5048134;28;20203;-55
2022/04/16 04:59:46;;;;;;;2.87;2.67;;;;;;;6.81;100.00;101349.50;5057764;28;20191;-54
2022/04/16 05:02:11;;;;;;;3.40;3.10;;;;;;;6.82;100.00;101348.66;5051756;28;20260;-56
2022/04/16 05:04:37;;;;;;;3.10;2.80;;;;;;;6.85;100.00;101350.47;5041069;28;20228;-55
2022/04/16 05:07:03;;;;;;;2.67;2.47;;;;;;;6.92;100.00;101357.47;5048103;28;20234;-56
2022/04/16 05:09:29;;;;;;;3.37;3.07;;;;;;;6.96;100.00;101361.88;5039756;28;20287;-54
2022/04/16 05:11:57;;;;;;;3.30;3.00;;;;;;;7.05;100.00;101362.91;5035744;28;20277;-56
2022/04/16 05:14:23;;;;;;;3.60;2.93;;;;;;;7.21;100.00;101361.56;5038537;28;20211;-55
2022/04/16 05:16:49;;;;;;;3.37;3.07;;;;;;;7.55;100.00;101362.28;5036852;28;20211;-54
2022/04/16 05:19:15;;;;;;;2.97;2.73;;;;;;;7.76;100.00;101369.59;5041370;28;20610;-53
2022/04/16 05:21:41;;;;;;;4.13;2.87;;;;;;;7.84;100.00;101362.88;5037911;28;20528;-54
2022/04/16 05:24:07;;;;;;;4.57;3.30;;;;;;;7.88;100.00;101366.38;5045082;28;20208;-53
2022/04/16 05:26:33;;;;;;;3.73;3.07;;;;;;;7.94;100.00;101363.91;5045590;28;20198;-54
2022/04/16 05:28:58;;;;;;;3.47;3.17;;;;;;;7.98;100.00;101373.47;5047104;28;20193;-55
2022/04/16 05:31:26;;;;;;;3.10;2.77;;;;;;;7.93;100.00;101368.22;5039070;28;20193;-54
2022/04/16 05:36:36;;;;;;;4.00;3.03;;;;;;;7.90;100.00;101375.00;5038078;28;20678;-55
2022/04/16 05:39:02;;;;;;;3.80;3.10;;;;;;;7.93;100.00;101375.06;5040009;28;20192;-54
2022/04/16 05:41:28;;;;;;;4.23;3.20;;;;;;;8.29;99.50;101375.72;5037853;28;20399;-54
2022/04/16 05:43:53;;;;;;;3.40;3.10;;;;;;;9.14;96.11;101384.88;5041497;28;20211;-55
2022/04/16 05:46:19;;;;;;;3.47;2.87;;;;;;;10.02;91.72;101387.69;5040234;28;20195;-54
2022/04/16 05:48:44;;;;;;;3.87;2.33;;;;;;;10.82;89.03;101383.31;5037216;28;20208;-56
2022/04/16 05:51:10;;;;;;;3.93;2.80;;;;;;;11.46;86.20;101385.44;5038221;28;20932;-56
2022/04/16 05:53:36;;;;;;;5.53;2.53;;;;;;;11.69;84.49;101388.16;5037035;28;20214;-54
2022/04/16 05:56:03;;;;;;;2.40;2.20;;;;;;;12.20;83.03;101384.00;5032802;28;20190;-54
2022/04/16 05:58:28;;;;;;;3.37;2.80;;;;;;;12.88;81.14;101388.34;5035238;28;20200;-55
2022/04/16 06:00:54;;;;;;;2.93;2.53;;;;;;;13.44;78.97;101387.41;5039322;28;20201;-54
2022/04/16 06:03:20;;;;;;;4.67;2.60;;;;;;;13.78;77.43;101390.75;5032106;28;20215;-55
2022/04/16 06:05:46;;;;;;;2.83;2.60;;;;;;;13.87;76.42;101402.84;5037569;28;20211;-53
2022/04/16 06:08:11;;;;;;;2.70;2.50;;;;;;;14.04;76.05;101402.78;5036206;28;20562;-55
2022/04/16 06:10:37;;;;;;;2.60;2.40;;;;;;;14.12;75.52;101395.78;5038028;28;20190;-55
2022/04/16 06:13:04;;;;;;;5.00;2.63;;;;;;;13.66;77.03;101411.59;5039309;28;20213;-53
2022/04/16 06:15:30;;;;;;;2.87;2.63;;;;;;;14.23;76.18;101405.25;5042999;28;20265;-52
2022/04/16 06:17:55;;;;;;;3.67;2.37;;;;;;;14.14;75.21;101408.81;5029154;28;20218;-54
2022/04/16 06:20:21;;;;;;;6.90;3.07;;;;;;;13.20;77.50;101418.63;5039016;28;20476;-54
2022/04/16 06:22:46;;;;;;;3.80;2.70;;;;;;;12.54;80.18;101413.47;5037958;28;20370;-54
2022/04/16 06:25:12;;;;;;;3.47;3.17;;;;;;;12.19;81.22;101416.00;5039431;28;20605;-53
2022/04/16 06:27:38;;;;;;;6.60;4.20;;;;;;;11.81;82.64;101419.31;5038723;28;20852;-54
2022/04/16 06:30:09;;;;;;;5.27;4.63;;;;;;;11.58;83.56;101421.78;5040051;28;20343;-55
2022/04/16 06:32:35;;;;;;;4.30;3.90;;;;;;;11.52;84.67;101420.03;5031621;28;20241;-53
2022/04/16 06:35:05;;;;;;;4.37;3.97;;;;;;;11.15;85.29;101419.81;5033802;28;20745;-55
2022/04/16 06:37:35;;;;;;;4.00;3.60;;;;;;;10.68;87.13;101422.03;5038939;28;20529;-53
2022/04/16 06:40:02;;;;;;;3.63;3.33;;;;;;;10.75;87.58;101428.13;5039868;28;20632;-55
2022/04/16 06:42:28;;;;;;;3.63;3.33;;;;;;;10.68;88.02;101427.22;5030542;28;20225;-54
2022/04/16 06:44:53;;;;;;;4.13;3.73;;;;;;;10.68;88.40;101428.94;5035439;28;20199;-55
2022/04/16 06:47:19;;;;;;;3.37;3.07;;;;;;;10.64;88.00;101434.94;5034839;28;20644;-54
2022/04/16 06:49:44;;;;;;;3.60;3.30;;;;;;;10.63;89.07;101426.31;5035806;28;20199;-55
2022/04/16 06:52:09;;;;;;;3.97;3.53;;;;;;;10.81;88.16;101422.16;5035329;28;20219;-55
2022/04/16 06:54:36;;;;;;;3.67;3.37;;;;;;;10.76;88.52;101422.09;5037487;28;20664;-55
2022/04/16 06:57:02;;;;;;;3.50;3.30;;;;;;;10.78;88.39;101416.94;5042859;28;20195;-56
2022/04/16 06:59:27;;;;;;;3.83;3.53;;;;;;;10.84;88.74;101432.53;5042638;28;20205;-55
2022/04/16 07:01:52;;;;;;;4.17;3.77;;;;;;;10.86;88.45;101436.00;5038136;28;20256;-55
2022/04/16 07:04:17;;;;;;;5.77;4.57;;;;;;;10.87;88.27;101435.13;5039306;28;20206;-54
2022/04/16 07:06:43;;;;;;;3.87;3.57;;;;;;;11.01;88.22;101445.63;5039098;28;20187;-55
2022/04/16 07:09:10;;;;;;;4.43;3.90;;;;;;;11.01;88.09;101434.38;5038413;28;20241;-54
2022/04/16 07:11:36;;;;;;;5.47;4.37;;;;;;;11.06;88.40;101435.28;5034968;28;20218;-55
2022/04/16 07:14:01;;;;;;;3.00;2.70;;;;;;;11.15;88.58;101432.75;5035235;28;20812;-55
2022/04/16 07:16:26;;;;;;;3.00;2.70;;;;;;;11.30;88.38;101429.41;5040644;28;20198;-55
2022/04/16 07:18:52;;;;;;;3.60;2.80;;;;;;;11.41;87.94;101430.34;5036377;28;20241;-55
2022/04/16 07:21:17;;;;;;;3.20;3.00;;;;;;;11.35;88.09;101438.06;5038199;28;20572;-55
2022/04/16 07:23:43;;;;;;;3.27;3.03;;;;;;;11.42;87.32;101439.84;5041496;28;20211;-54
2022/04/16 07:26:08;;;;;;;3.77;3.40;;;;;;;11.53;86.95;101441.63;5043510;28;20323;-54
2022/04/16 07:28:33;;;;;;;3.40;3.10;;;;;;;11.62;86.11;101446.88;5044803;28;20604;-55
2022/04/16 07:30:59;;;;;;;4.10;3.30;;;;;;;11.52;85.80;101439.91;5043123;28;20195;-55
2022/04/16 07:33:28;;;;;;;3.73;3.27;;;;;;;11.64;86.38;101452.06;5051037;28;20211;-55
2022/04/16 07:35:53;;;;;;;3.10;2.90;;;;;;;11.80;86.00;101447.84;5033187;28;20634;-55
2022/04/16 07:38:18;;;;;;;3.33;3.03;;;;;;;11.68;86.17;101452.09;5039549;28;20198;-55
2022/04/16 07:40:43;;;;;;;3.27;2.97;;;;;;;11.71;86.57;101452.09;5037959;28;20198;-53
2022/04/16 07:43:09;;;;;;;3.60;3.30;;;;;;;11.62;85.85;101446.00;5037239;28;20234;-55
2022/04/16 07:45:34;;;;;;;3.37;3.07;;;;;;;11.90;85.55;101442.69;5047795;28;20199;-54
2022/04/16 07:47:59;;;;;;;5.70;3.10;;;;;;;12.08;85.13;101447.97;5040276;28;20300;-54
2022/04/16 07:50:25;;;;;;;3.40;3.10;;;;;;;12.17;84.58;101453.19;5047927;28;20574;-55
2022/04/16 07:52:50;;;;;;;3.70;3.40;;;;;;;12.29;83.81;101448.03;5038883;28;20663;-54
2022/04/16 07:55:16;;;;;;;3.40;3.17;;;;;;;12.35;84.12;101457.56;5042040;28;20265;-55
2022/04/16 07:57:42;;;;;;;3.50;3.20;;;;;;;12.47;83.94;101455.00;5040071;28;20217;-55
2022/04/16 08:00:09;;;;;;;3.73;3.37;;;;;;;12.31;83.70;101461.03;5037379;28;20193;-55
2022/04/16 08:02:34;;;;;;;4.07;3.67;;;;;;;12.27;83.76;101467.91;5040406;28;20214;-54
2022/04/16 08:05:00;;;;;;;3.50;3.20;;;;;;;12.52;83.52;101469.72;5038746;28;20658;-54
2022/04/16 08:07:25;;;;;;;4.10;3.70;;;;;;;12.64;82.82;101461.94;5040493;28;20189;-53
2022/04/16 08:09:52;;;;;;;3.53;3.23;;;;;;;12.74;82.48;101461.09;5045094;28;20575;-52
2022/04/16 08:12:17;;;;;;;3.60;3.30;;;;;;;12.85;82.65;101462.84;5043407;28;20214;-54
2022/04/16 08:14:45;;;;;;;4.17;3.87;;;;;;;12.78;82.84;101467.16;5057181;28;20252;-54
2022/04/16 08:17:11;;;;;;;3.80;3.50;;;;;;;12.99;82.80;101476.69;5052858;28;20188;-55
2022/04/16 08:19:36;;;;;;;4.20;3.73;;;;;;;13.01;82.83;101490.56;5054814;28;20194;-54
2022/04/16 08:22:07;;;;;;;4.77;4.37;;;;;;;12.75;83.52;101477.53;5037993;28;20631;-56
2022/04/16 08:24:41;;;;;;;4.70;4.30;;;;;;;12.98;83.86;101476.69;5030529;28;20243;-53
2022/04/16 08:27:07;;;;;;;4.40;4.00;;;;;;;13.14;83.17;101485.34;5041996;28;20190;-55
2022/04/16 08:29:33;;;;;;;5.53;4.27;;;;;;;13.21;84.03;101500.09;5040156;28;20201;-53
2022/04/16 08:31:58;;;;;;;6.57;4.43;;;;;;;13.08;84.73;101501.81;5030426;28;20209;-55
2022/04/16 08:34:24;;;;;;;4.80;4.40;;;;;;;12.97;85.10;101509.59;5034843;28;20276;-54
2022/04/16 08:36:49;;;;;;;5.83;5.13;;;;;;;12.52;85.19;101491.38;5042320;28;20187;-56
2022/04/16 08:39:15;;;;;;;8.30;4.60;;;;;;;12.37;85.66;101517.28;5042591;28;20194;-54
2022/04/16 08:41:41;;;;;;;5.53;4.10;;;;;;;12.39;86.68;101494.81;5042134;28;20323;-57
2022/04/16 08:44:08;;;;;;;4.87;4.37;;;;;;;12.58;86.68;101496.56;5043905;28;20211;-56
2022/04/16 08:46:33;;;;;;;4.73;4.33;;;;;;;13.07;85.55;101493.16;5043934;28;20206;-55
2022/04/16 08:48:59;;;;;;;5.50;5.00;;;;;;;12.92;84.40;101496.63;5053008;28;20593;-55
2022/04/16 08:51:29;;;;;;;4.60;4.13;;;;;;;13.16;83.56;101520.88;5042736;28;20335;-54
2022/04/16 08:53:55;;;;;;;4.93;4.53;;;;;;;13.05;83.94;101499.22;5038404;28;20669;-55
2022/04/16 08:56:21;;;;;;;5.93;4.90;;;;;;;12.99;83.57;101500.06;5045174;28;20196;-56
2022/04/16 08:58:46;;;;;;;5.03;4.60;;;;;;;13.03;83.77;101513.94;5052801;28;20199;-55
2022/04/16 09:01:12;;;;;;;5.43;4.90;;;;;;;13.19;82.92;101494.03;5055498;28;20193;-56
2022/04/16 09:03:39;;;;;;;4.73;4.23;;;;;;;13.20;83.74;101499.22;5047241;28;20300;-55
2022/04/16 09:06:05;;;;;;;4.73;4.37;;;;;;;13.49;82.58;101498.34;5049499;28;20196;-55
2022/04/16 09:08:32;;;;;;;5.00;4.60;;;;;;;13.56;82.33;101489.69;5054601;28;20214;-55
2022/04/16 09:11:07;;;;;;;5.60;5.10;;;;;;;13.50;81.53;101491.44;5042252;28;20186;-55
2022/04/16 09:13:33;;;;;;;4.40;4.10;;;;;;;14.00;81.09;101499.94;5041571;28;20217;-55
2022/04/16 09:16:07;;;;;;;5.47;4.47;;;;;;;13.84;79.81;101512.16;5055906;28;20556;-54
2022/04/16 09:18:50;;;;;;;4.80;4.40;;;;;;;13.91;80.17;101503.44;5032876;28;20194;-54
2022/04/16 09:21:17;;;;;;;4.63;4.23;;;;;;;13.80;79.53;101494.81;5037422;28;20202;-54
2022/04/16 09:23:47;;;;;;;4.80;4.40;;;;;;;13.56;80.58;101494.00;5037994;28;20588;-54
2022/04/16 09:26:23;;;;;;;5.97;4.60;;;;;;;13.40;80.70;101488.81;5040174;28;20191;-55
2022/04/16 09:28:50;;;;;;;4.60;4.20;;;;;;;13.15;82.06;101505.28;5040393;28;20199;-55
2022/04/16 09:31:16;;;;;;;5.17;4.77;;;;;;;13.11;82.44;101499.22;5033474;28;20190;-56
2022/04/16 09:33:41;;;;;;;5.23;4.73;;;;;;;13.12;83.79;101482.78;5039756;28;20274;-55
2022/04/16 09:36:06;;;;;;;4.83;4.43;;;;;;;13.20;83.08;101493.16;5038437;28;20605;-55
2022/04/16 09:38:35;;;;;;;4.83;4.43;;;;;;;13.27;82.05;101487.97;5038490;28;20193;-56
2022/04/16 09:41:05;;;;;;;5.00;4.60;;;;;;;13.18;82.82;101477.53;5036612;28;20229;-54
2022/04/16 09:43:38;;;;;;;4.80;4.30;;;;;;;13.07;81.96;101500.09;5032405;28;20205;-56
2022/04/16 09:46:13;;;;;;;6.50;4.70;;;;;;;12.91;82.22;101486.22;5043495;28;20184;-53
2022/04/16 09:48:39;;;;;;;4.83;4.33;;;;;;;12.93;81.74;101482.75;5044583;28;20216;-54
2022/04/16 09:51:05;;;;;;;5.37;4.97;;;;;;;13.02;81.18;101491.41;5041523;28;20193;-55
2022/04/16 09:53:31;;;;;;;5.07;4.67;;;;;;;13.07;81.34;101476.69;5041638;28;20582;-55
2022/04/16 09:55:58;;;;;;;4.60;4.20;;;;;;;13.37;81.73;101480.13;5035841;28;20216;-55
2022/04/16 09:58:33;;;;;;;4.70;4.30;;;;;;;13.62;79.32;101486.19;5036752;28;20226;-54
2022/04/16 10:01:01;;;;;;;5.60;5.10;;;;;;;13.74;79.29;101479.22;5035695;28;20555;-55
2022/04/16 10:03:27;;;;;;;5.27;4.57;;;;;;;13.71;79.22;101498.31;5039271;28;20228;-55
2022/04/16 10:05:57;;;;;;;4.73;4.33;;;;;;;14.01;78.22;101497.34;5034330;28;20266;-54
2022/04/16 10:08:22;;;;;;;4.70;4.30;;;;;;;13.86;76.42;101498.28;5044123;28;20191;-55
2022/04/16 10:10:54;;;;;;;8.37;5.67;;;;;;;13.84;77.92;101502.59;5040994;28;20184;-53
2022/04/16 10:13:20;;;;;;;5.50;5.00;;;;;;;13.81;77.56;101489.59;5042456;28;20215;-55
2022/04/16 10:15:59;;;;;;;4.73;4.03;;;;;;;14.00;77.31;101506.00;5050444;28;20229;-53
2022/04/16 10:18:26;;;;;;;5.27;4.87;;;;;;;14.13;76.48;101501.63;5040724;28;20230;-55
2022/04/16 10:20:59;;;;;;;4.93;4.53;;;;;;;14.31;75.25;101531.91;5038446;28;20261;-54
2022/04/16 10:23:31;;;;;;;5.30;4.90;;;;;;;14.30;74.52;101514.56;5033384;28;20262;-56
2022/04/16 10:26:06;;;;;;;5.10;4.40;;;;;;;14.11;75.34;101508.59;5040195;28;20896;-54
2022/04/16 10:28:38;;;;;;;4.97;4.47;;;;;;;14.28;75.96;101500.72;5032594;28;20711;-55
2022/04/16 10:31:05;;;;;;;5.80;5.30;;;;;;;14.28;76.36;101505.91;5038531;28;20420;-54
2022/04/16 10:33:31;;;;;;;5.47;4.90;;;;;;;14.37;76.18;101512.78;5051894;28;20232;-55
2022/04/16 10:36:01;;;;;;;9.63;5.37;;;;;;;14.66;74.08;101501.38;5037917;28;20186;-54
2022/04/16 10:38:33;;;;;;;5.73;4.37;;;;;;;14.45;75.17;101515.34;5039356;28;20676;-55
2022/04/16 10:41:01;;;;;;;6.03;5.53;;;;;;;14.47;74.90;101519.69;5046500;28;20193;-55
2022/04/16 10:43:32;;;;;;;12.97;6.53;;;;;;;14.53;74.71;101521.41;5036049;28;20637;-55
2022/04/16 10:46:08;;;;;;;5.20;4.70;;;;;;;14.63;74.54;101519.63;5043897;28;20248;-55
2022/04/16 10:48:41;;;;;;;5.67;4.57;;;;;;;14.59;74.00;101513.56;5037496;28;20189;-55
2022/04/16 10:51:08;;;;;;;4.87;4.47;;;;;;;14.44;74.56;101506.69;5033480;28;20184;-54
2022/04/16 10:53:35;;;;;;;6.77;4.10;;;;;;;14.85;74.37;101496.91;5038303;28;20841;-53
2022/04/16 10:56:14;;;;;;;4.57;4.17;;;;;;;14.93;72.21;101496.88;5034563;28;20183;-56
2022/04/16 10:58:41;;;;;;;5.20;4.80;;;;;;;14.92;71.70;101515.97;5033745;28;20202;-55
2022/04/16 11:01:09;;;;;;;4.50;4.10;;;;;;;14.82;71.76;101496.09;5039344;28;20303;-55
2022/04/16 11:03:51;;;;;;;4.67;4.10;;;;;;;14.64;71.50;101501.34;5034822;28;20264;-53
2022/04/16 11:06:17;;;;;;;4.23;3.60;;;;;;;14.98;71.87;101500.28;5033221;28;20179;-55
2022/04/16 11:08:45;;;;;;;3.80;3.50;;;;;;;15.21;71.40;101515.72;5034231;28;20252;-54
2022/04/16 11:11:12;;;;;;;4.60;4.20;;;;;;;15.03;71.69;101501.13;5036508;28;20641;-55
2022/04/16 11:13:39;;;;;;;3.80;3.50;;;;;;;14.99;71.45;101496.78;5039958;28;20225;-56
2022/04/16 11:16:07;;;;;;;4.00;3.60;;;;;;;15.01;69.94;101489.84;5033633;28;20183;-54
2022/04/16 11:18:42;;;;;;;4.53;4.13;;;;;;;15.01;69.08;101492.44;5044523;28;20183;-56
2022/04/16 11:21:20;;;;;;;3.97;3.67;;;;;;;15.22;69.15;101491.38;5038992;28;20281;-56
2022/04/16 11:23:52;;;;;;;3.77;3.30;;;;;;;15.41;68.78;101482.53;5039789;28;20523;-52
2022/04/16 11:34:44;;;;;;;3.53;3.17;;;;;;;15.46;67.61;101494.66;5048023;28;20210;-55
2022/04/16 11:37:10;;;;;;;3.70;3.40;;;;;;;15.40;67.68;101484.28;5040378;28;20183;-55
2022/04/16 11:39:35;;;;;;;3.00;2.80;;;;;;;15.48;67.12;101482.47;5044716;28;20549;-55
2022/04/16 11:42:07;;;;;;;3.33;3.03;;;;;;;15.48;67.63;101474.63;5047554;28;20500;-55
2022/04/16 11:44:44;;;;;;;10.20;2.97;;;;;;;15.11;65.97;101481.94;5048815;28;20330;-55
2022/04/16 11:47:20;;;;;;;2.97;2.30;;;;;;;15.13;67.03;101481.06;5040664;28;20182;-55